Time;durP1;ratioP1;P1;durP2;ratioP2;P2;SDS_P1;SDS_P2;PMS_P1;PMS_P2;Temp;Humidity;BMP_temperature;BMP_pressure;BME280_temperature;BME280_humidity;BME280_pressure;Samples;Min_cycle;Max_cycle;Signal;HPM_P1;HPM_P2
2022/06/04 00:00:18;;;;;;;2.47;2.28;;;;;;;18.01;48.83;101677.81;5090850;28;20075;-71
2022/06/04 00:02:45;;;;;;;6.20;2.78;;;;;;;18.03;49.10;101684.78;5073021;28;20027;-70
2022/06/04 00:05:13;;;;;;;4.88;2.50;;;;;;;17.95;48.69;101681.88;5073255;28;20114;-71
2022/06/04 00:07:39;;;;;;;6.70;2.20;;;;;;;18.04;48.58;101685.66;5075456;28;20015;-71
2022/06/04 00:15:47;;;;;;;2.55;2.33;;;;;;;17.95;48.79;101679.19;5091499;28;20403;-71
2022/06/04 00:18:13;;;;;;;4.05;2.80;;;;;;;17.87;48.76;101682.47;5090654;28;20153;-71
2022/06/04 00:20:42;;;;;;;3.53;2.50;;;;;;;17.79;49.00;101678.69;5091687;28;20096;-71
2022/06/04 00:23:09;;;;;;;6.57;2.80;;;;;;;17.74;49.21;101679.03;5092025;28;20039;-71
2022/06/04 00:25:36;;;;;;;8.57;2.60;;;;;;;17.63;49.49;101671.81;5074324;28;20050;-71
2022/06/04 00:28:05;;;;;;;4.28;2.47;;;;;;;17.69;48.64;101679.41;5088902;28;20059;-71
2022/06/04 00:30:31;;;;;;;;;;;;;;;17.87;48.34;101687.84;5071792;28;20370;-71
2022/06/04 00:32:57;;;;;;;4.03;2.47;;;;;;;17.63;48.88;101689.78;5090232;28;20002;-70
2022/06/04 00:35:23;;;;;;;6.35;2.75;;;;;;;17.58;48.96;101690.16;5089944;28;20028;-71
2022/06/04 00:37:50;;;;;;;4.63;2.80;;;;;;;17.57;48.90;101684.91;5089951;28;20589;-71
2022/06/04 00:40:23;;;;;;;4.18;2.88;;;;;;;17.67;48.92;101691.25;5090714;28;20024;-71
2022/06/04 00:42:48;;;;;;;3.63;2.80;;;;;;;17.57;49.03;101684.91;5072172;28;20081;-71
2022/06/04 00:45:32;;;;;;;2.83;2.50;;;;;;;17.48;49.12;101670.34;5073500;28;20433;-71
2022/06/04 00:48:01;;;;;;;2.78;2.50;;;;;;;17.40;49.07;101679.00;5091609;28;20027;-71
2022/06/04 00:50:31;;;;;;;6.28;2.60;;;;;;;17.26;49.62;101681.91;5072879;28;20016;-71
2022/06/04 00:53:00;;;;;;;2.67;2.40;;;;;;;17.28;49.19;101701.50;5074324;28;20111;-71
2022/06/04 00:55:34;;;;;;;4.07;2.65;;;;;;;17.29;49.32;101705.88;5094332;28;20398;-70
2022/06/04 00:58:30;;;;;;;6.72;2.90;;;;;;;17.39;48.84;101712.28;5098431;28;20044;-70
2022/06/04 01:01:17;;;;;;;4.55;2.45;;;;;;;17.21;49.28;101711.88;5092230;28;20047;-70
2022/06/04 01:03:49;;;;;;;6.93;2.78;;;;;;;17.27;48.72;101718.59;5091416;28;20028;-71
2022/06/04 01:06:47;;;;;;;4.78;2.70;;;;;;;17.17;49.25;101718.44;5077261;28;21519;-70
2022/06/04 01:09:38;;;;;;;3.97;2.58;;;;;;;17.22;49.02;101731.53;5078181;28;20036;-70
2022/06/04 01:12:31;;;;;;;2.47;2.28;;;;;;;17.27;48.97;101732.06;5089888;28;20123;-70
2022/06/04 01:15:12;;;;;;;4.60;2.60;;;;;;;17.19;48.74;101735.31;5093597;28;20032;-70
2022/06/04 01:17:59;;;;;;;5.97;2.60;;;;;;;17.13;49.08;101722.34;5074996;28;20032;-71
2022/06/04 01:20:52;;;;;;;5.72;2.80;;;;;;;17.11;49.27;101723.44;5075017;28;20497;-71
2022/06/04 01:23:38;;;;;;;7.25;2.72;;;;;;;16.97;49.22;101722.69;5093721;28;20032;-70
2022/06/04 01:26:16;;;;;;;5.03;2.63;;;;;;;16.88;49.50;101723.34;5074988;28;20047;-70
2022/06/04 01:28:57;;;;;;;4.03;2.38;;;;;;;16.79;49.66;101724.94;5092987;28;20031;-71
2022/06/04 01:31:49;;;;;;;5.45;2.72;;;;;;;16.86;49.44;101737.91;5093242;28;20027;-71
2022/06/04 01:34:22;;;;;;;5.07;2.85;;;;;;;16.76;49.65;101743.94;5087839;28;20126;-71
2022/06/04 01:37:08;;;;;;;4.75;2.95;;;;;;;16.77;49.05;101729.56;5075364;28;20036;-70
2022/06/04 01:42:25;;;;;;;5.40;2.80;;;;;;;16.57;49.76;101732.84;5094677;28;20046;-70
2022/06/04 01:44:53;;;;;;;3.65;2.88;;;;;;;16.52;50.26;101745.75;5093751;28;20078;-71
2022/06/04 01:47:21;;;;;;;4.10;2.60;;;;;;;16.48;50.32;101753.16;5094778;28;20020;-70
2022/06/04 01:49:56;;;;;;;5.82;3.00;;;;;;;16.52;50.23;101753.78;5095495;28;20070;-70
2022/06/04 01:52:29;;;;;;;5.55;3.03;;;;;;;16.65;50.04;101769.84;5076058;28;20517;-71
2022/06/04 01:55:01;;;;;;;7.30;3.38;;;;;;;16.52;49.93;101768.06;5092859;28;20024;-70
2022/06/04 01:57:36;;;;;;;4.70;2.78;;;;;;;16.69;49.58;101769.53;5082556;28;20103;-70
2022/06/04 02:00:11;;;;;;;4.00;2.80;;;;;;;16.66;49.74;101774.28;5090954;28;20471;-71
2022/06/04 02:02:47;;;;;;;5.45;2.58;;;;;;;16.74;49.98;101774.56;5076415;28;20020;-71
2022/06/04 02:05:20;;;;;;;7.13;2.90;;;;;;;16.49;50.08;101771.00;5092792;28;20030;-70
2022/06/04 02:07:48;;;;;;;3.88;2.90;;;;;;;16.48;50.39;101768.44;5092702;28;20466;-71
2022/06/04 02:10:33;;;;;;;6.13;2.95;;;;;;;16.45;50.41;101761.47;5092992;28;20032;-70
2022/06/04 02:13:05;;;;;;;5.63;3.03;;;;;;;16.34;50.44;101775.66;5093306;28;20030;-71
2022/06/04 02:15:38;;;;;;;4.63;3.20;;;;;;;16.37;50.71;101768.34;5074346;28;20077;-70
2022/06/04 02:18:07;;;;;;;6.50;3.25;;;;;;;16.23;50.98;101772.88;5093640;28;20020;-70
2022/06/04 02:20:35;;;;;;;4.85;2.92;;;;;;;16.29;51.24;101769.75;5092250;28;20532;-71
2022/06/04 02:23:02;;;;;;;6.45;3.10;;;;;;;16.17;51.18;101764.41;5094573;28;20032;-71
2022/06/04 02:25:31;;;;;;;3.60;2.90;;;;;;;16.23;51.79;101778.25;5093144;28;20531;-71
2022/06/04 02:27:57;;;;;;;7.22;2.97;;;;;;;16.31;51.17;101775.03;5091899;28;20024;-71
2022/06/04 02:30:30;;;;;;;5.70;3.08;;;;;;;16.26;51.40;101767.28;5090657;28;20584;-70
2022/06/04 02:33:06;;;;;;;4.05;2.97;;;;;;;16.19;51.45;101762.50;5077460;28;20039;-71
2022/06/04 02:35:39;;;;;;;4.47;2.85;;;;;;;16.12;51.45;101754.03;5092878;28;20107;-71
2022/06/04 02:38:21;;;;;;;4.00;3.10;;;;;;;16.00;52.21;101760.25;5091613;28;20031;-71
2022/06/04 02:40:55;;;;;;;4.85;3.10;;;;;;;15.99;52.32;101747.81;5092872;28;20043;-71
2022/06/04 02:43:32;;;;;;;6.53;3.30;;;;;;;15.83;52.59;101740.88;5093671;28;20471;-71
2022/06/04 02:46:31;;;;;;;4.70;3.05;;;;;;;15.75;52.45;101724.44;5093454;28;20039;-70
2022/06/04 02:49:06;;;;;;;4.85;3.10;;;;;;;15.83;52.60;101722.09;5091635;28;20059;-70
2022/06/04 02:51:52;;;;;;;3.55;2.90;;;;;;;15.75;53.02;101720.91;5092490;28;20031;-70
2022/06/04 02:54:27;;;;;;;6.30;3.00;;;;;;;15.79;52.82;101717.03;5092443;28;20493;-70
2022/06/04 02:56:57;;;;;;;4.10;3.15;;;;;;;15.77;53.25;101705.59;5092566;28;20020;-70
2022/06/04 02:59:25;;;;;;;5.93;3.50;;;;;;;15.88;53.38;101705.66;5090902;28;20040;-70
2022/06/04 03:01:55;;;;;;;5.72;4.32;;;;;;;15.93;52.85;101706.19;5092128;28;20440;-70
2022/06/04 03:04:21;;;;;;;7.10;3.63;;;;;;;15.79;53.21;101693.75;5091418;28;20111;-70
2022/06/04 03:06:46;;;;;;;5.78;3.25;;;;;;;15.83;53.33;101706.00;5091263;28;20103;-71
2022/06/04 03:09:15;;;;;;;4.15;3.65;;;;;;;15.73;53.83;101698.69;5074539;28;20028;-71
2022/06/04 03:11:47;;;;;;;4.55;3.67;;;;;;;15.54;54.08;101696.44;5092910;28;20596;-71
2022/06/04 03:14:17;;;;;;;8.35;3.58;;;;;;;15.62;53.76;101708.34;5092357;28;20028;-70
2022/06/04 03:16:47;;;;;;;5.88;3.80;;;;;;;15.61;53.69;101698.56;5090645;28;20414;-70
2022/06/04 03:19:13;;;;;;;5.60;3.83;;;;;;;15.70;54.00;101706.97;5090640;28;20115;-70
2022/06/04 03:21:41;;;;;;;5.55;3.70;;;;;;;15.70;53.79;101706.97;5073786;28;20418;-70
2022/06/04 03:24:08;;;;;;;6.05;4.00;;;;;;;15.65;53.94;101702.75;5076051;28;20035;-70
2022/06/04 03:26:34;;;;;;;7.50;3.92;;;;;;;15.61;54.64;101693.19;5090836;28;20032;-71
2022/06/04 03:29:00;;;;;;;5.95;3.75;;;;;;;15.64;54.75;101686.75;5090543;28;20107;-70
2022/06/04 03:31:26;;;;;;;8.40;4.15;;;;;;;15.59;54.82;101697.84;5091037;28;20079;-70
2022/06/04 03:33:53;;;;;;;10.13;4.72;;;;;;;15.47;55.58;101695.13;5094144;28;20689;-70
2022/06/04 03:36:19;;;;;;;4.57;4.15;;;;;;;15.35;55.86;101691.50;5090169;28;20028;-70
2022/06/04 03:38:45;;;;;;;7.80;4.60;;;;;;;15.29;55.90;101700.81;5073093;28;20032;-71
2022/06/04 03:41:11;;;;;;;6.03;4.80;;;;;;;15.10;56.66;101703.91;5073227;28;20032;-71
2022/06/04 03:43:37;;;;;;;5.68;4.70;;;;;;;15.11;56.56;101713.66;5072404;28;20494;-70
2022/06/04 03:46:03;;;;;;;8.68;4.40;;;;;;;15.16;57.11;101718.72;5091124;28;20032;-70
2022/06/04 03:48:28;;;;;;;7.47;4.70;;;;;;;15.13;57.09;101717.09;5055656;28;20043;-70
2022/06/04 03:50:54;;;;;;;6.45;4.70;;;;;;;15.15;57.13;101719.69;5072353;28;20032;-70
2022/06/04 03:53:22;;;;;;;9.77;4.82;;;;;;;15.21;56.84;101719.28;5090980;28;20028;-71
2022/06/04 03:55:53;;;;;;;9.95;4.80;;;;;;;15.18;57.04;101717.66;5090569;28;20117;-71
2022/06/04 03:58:18;;;;;;;7.32;4.85;;;;;;;15.25;56.90;101720.75;5074635;28;20097;-71
2022/06/04 04:00:45;;;;;;;8.77;5.30;;;;;;;15.17;57.28;101731.16;5090138;28;20044;-70
2022/06/04 04:03:17;;;;;;;6.47;5.20;;;;;;;15.04;57.37;101719.56;5056984;28;20035;-70
2022/06/04 04:05:48;;;;;;;7.28;5.13;;;;;;;15.01;57.54;101728.66;5089106;28;20028;-71
2022/06/04 04:08:15;;;;;;;7.03;4.80;;;;;;;15.14;57.78;101726.84;5088850;28;20024;-70
2022/06/04 04:10:42;;;;;;;9.45;5.30;;;;;;;15.11;57.79;101728.88;5091269;28;20015;-70
2022/06/04 04:13:09;;;;;;;8.90;5.68;;;;;;;15.03;58.29;101729.44;5089746;28;20440;-70
2022/06/04 04:15:35;;;;;;;10.48;5.32;;;;;;;15.03;58.02;101732.09;5092081;28;20379;-70
2022/06/04 04:18:00;;;;;;;7.68;4.97;;;;;;;15.02;58.13;101746.44;5090000;28;20020;-70
2022/06/04 04:20:31;;;;;;;8.63;5.00;;;;;;;15.08;58.32;101742.50;5090678;28;20051;-70
2022/06/04 04:22:58;;;;;;;7.43;5.47;;;;;;;14.95;58.65;101732.63;5089234;28;20475;-70
2022/06/04 04:25:28;;;;;;;7.13;4.82;;;;;;;14.93;59.10;101744.38;5089742;28;20031;-71
2022/06/04 04:27:53;;;;;;;7.07;5.05;;;;;;;15.05;58.56;101740.03;5073536;28;20489;-71
2022/06/04 04:30:22;;;;;;;5.75;4.72;;;;;;;15.07;59.06;101757.72;5089790;28;20110;-71
2022/06/04 04:32:48;;;;;;;8.90;5.25;;;;;;;15.22;58.41;101753.13;5092313;28;20035;-70
2022/06/04 04:35:20;;;;;;;9.45;5.45;;;;;;;15.14;58.54;101756.31;5090770;28;20445;-71
2022/06/04 04:37:46;;;;;;;9.35;5.70;;;;;;;15.15;58.90;101760.75;5097037;28;20048;-70
2022/06/04 04:40:14;;;;;;;8.20;5.15;;;;;;;15.05;59.00;101770.34;5094256;28;20024;-70
2022/06/04 04:42:42;;;;;;;7.13;5.30;;;;;;;15.12;58.79;101763.63;5093612;28;20023;-70
2022/06/04 04:45:09;;;;;;;8.13;5.32;;;;;;;15.04;59.10;101779.34;5094756;28;20028;-70
2022/06/04 04:47:37;;;;;;;7.57;5.60;;;;;;;14.99;59.31;101773.44;5059311;28;20115;-70
2022/06/04 04:50:05;;;;;;;10.88;5.45;;;;;;;14.97;59.81;101778.03;5091795;28;20408;-70
2022/06/04 04:52:30;;;;;;;7.55;5.60;;;;;;;14.91;59.64;101783.81;5093642;28;20030;-71
2022/06/04 04:54:56;;;;;;;9.57;6.03;;;;;;;14.92;59.89;101781.03;5095269;28;20028;-70
2022/06/04 04:57:22;;;;;;;7.45;5.72;;;;;;;15.01;59.73;101781.41;5075241;28;20028;-70
2022/06/04 04:59:50;;;;;;;6.60;5.72;;;;;;;14.99;59.63;101781.47;5076492;28;20122;-70
2022/06/04 05:02:16;;;;;;;11.52;5.68;;;;;;;15.07;59.75;101780.97;5093994;28;20031;-71
2022/06/04 05:04:42;;;;;;;9.00;5.63;;;;;;;14.99;59.88;101771.63;5097565;28;20027;-70
2022/06/04 05:07:11;;;;;;;8.73;6.05;;;;;;;14.99;60.24;101776.13;5093750;28;20026;-71
2022/06/04 05:09:39;;;;;;;9.55;6.22;;;;;;;15.04;60.47;101784.72;5076525;28;20026;-70
2022/06/04 05:12:08;;;;;;;8.70;5.82;;;;;;;14.98;60.34;101777.94;5075513;28;20376;-70
2022/06/04 05:14:34;;;;;;;8.77;6.20;;;;;;;14.93;60.58;101776.53;5076372;28;20394;-70
2022/06/04 05:17:00;;;;;;;6.90;6.10;;;;;;;14.80;60.31;101751.53;5093074;28;20023;-71
2022/06/04 05:19:26;;;;;;;11.57;6.13;;;;;;;15.01;61.07;101784.06;5076474;28;20040;-70
2022/06/04 05:21:52;;;;;;;9.98;5.40;;;;;;;15.11;60.40;101786.00;5075229;28;20062;-70
2022/06/04 05:24:26;;;;;;;11.50;6.78;;;;;;;14.97;60.95;101796.78;5060362;28;20077;-71
2022/06/04 05:26:54;;;;;;;11.63;6.30;;;;;;;14.90;61.03;101790.97;5090643;28;20031;-71
2022/06/04 05:29:20;;;;;;;11.38;6.35;;;;;;;14.89;61.33;101796.47;5093236;28;20383;-71
2022/06/04 05:31:46;;;;;;;9.43;6.78;;;;;;;14.91;61.61;101789.16;5093852;28;20479;-71
2022/06/04 05:34:17;;;;;;;9.75;6.43;;;;;;;15.07;60.95;101800.59;5094613;28;20115;-70
2022/06/04 05:36:43;;;;;;;10.88;6.30;;;;;;;15.06;60.83;101803.34;5093737;28;20072;-70
2022/06/04 05:39:12;;;;;;;9.45;6.45;;;;;;;14.90;61.25;101798.16;5092954;28;20024;-70
2022/06/04 05:41:41;;;;;;;10.07;6.63;;;;;;;14.99;61.29;101808.28;5075313;28;20451;-71
2022/06/04 05:44:07;;;;;;;8.23;6.63;;;;;;;14.98;61.62;101814.59;5075349;28;20042;-71
2022/06/04 05:46:33;;;;;;;11.90;7.47;;;;;;;14.95;61.41;101812.97;5093637;28;20072;-70
2022/06/04 05:49:00;;;;;;;9.25;7.22;;;;;;;15.04;61.54;101811.50;5095965;28;20016;-71
2022/06/04 05:51:27;;;;;;;12.07;6.50;;;;;;;15.08;61.76;101815.69;5095117;28;20078;-70
2022/06/04 05:53:53;;;;;;;16.00;7.38;;;;;;;15.16;61.97;101813.38;5095244;28;20099;-71
2022/06/04 05:56:21;;;;;;;11.73;7.57;;;;;;;15.12;61.28;101814.53;5074181;28;20078;-70
2022/06/04 05:58:48;;;;;;;11.27;7.32;;;;;;;15.11;61.24;101801.22;5073613;28;20467;-70
2022/06/04 06:01:19;;;;;;;12.85;8.07;;;;;;;15.13;61.66;101815.41;5093783;28;20498;-71
2022/06/04 06:03:44;;;;;;;10.35;7.20;;;;;;;15.16;61.29;101809.84;5096759;28;20043;-71
2022/06/04 06:06:17;;;;;;;11.25;7.60;;;;;;;15.17;61.32;101822.25;5093670;28;20016;-71
2022/06/04 06:08:44;;;;;;;11.20;7.43;;;;;;;15.14;61.88;101817.97;5091689;28;20039;-70
2022/06/04 06:11:14;;;;;;;12.90;7.97;;;;;;;15.17;61.93;101822.25;5092436;28;20098;-70
2022/06/04 06:13:42;;;;;;;10.60;7.78;;;;;;;15.28;61.67;101818.88;5091808;28;20038;-71
2022/06/04 06:16:12;;;;;;;12.75;8.85;;;;;;;15.15;62.10;101808.97;5092923;28;20027;-71
2022/06/04 06:18:38;;;;;;;11.88;7.43;;;;;;;15.24;61.92;101812.00;5075309;28;20107;-70
2022/06/04 06:21:13;;;;;;;9.98;7.68;;;;;;;15.27;61.58;101811.81;5091362;28;20107;-70
2022/06/04 06:23:40;;;;;;;12.13;7.95;;;;;;;15.31;61.16;101811.47;5092790;28;20085;-70
2022/06/04 06:26:14;;;;;;;10.93;7.43;;;;;;;15.42;61.64;101814.28;5092497;28;20110;-70
2022/06/04 06:28:40;;;;;;;9.35;7.00;;;;;;;15.53;60.99;101810.88;5091937;28;20590;-70
2022/06/04 06:31:08;;;;;;;10.93;7.70;;;;;;;15.41;61.08;101814.38;5093499;28;20376;-70
2022/06/04 06:33:33;;;;;;;14.82;8.10;;;;;;;15.54;61.03;101826.00;5073594;28;20023;-70
2022/06/04 06:36:04;;;;;;;12.90;8.20;;;;;;;15.41;61.17;101817.94;5074291;28;20119;-70
2022/06/04 06:38:30;;;;;;;12.52;7.97;;;;;;;15.58;60.81;101829.31;5089897;28;20056;-70
2022/06/04 06:40:56;;;;;;;16.23;8.60;;;;;;;15.58;61.43;101835.53;5092751;28;20027;-70
2022/06/04 06:43:31;;;;;;;12.27;8.35;;;;;;;15.52;61.64;101832.44;5092215;28;20032;-70
2022/06/04 06:46:05;;;;;;;10.57;7.50;;;;;;;15.65;61.02;101831.50;5074255;28;20031;-70
2022/06/04 06:48:30;;;;;;;11.25;7.75;;;;;;;15.57;61.32;101836.53;5091833;28;20051;-70
2022/06/04 06:50:56;;;;;;;13.43;9.25;;;;;;;15.57;61.00;101841.88;5074918;28;20032;-70
2022/06/04 06:53:24;;;;;;;16.65;8.63;;;;;;;15.59;61.50;101839.97;5093444;28;20026;-70
2022/06/04 06:55:51;;;;;;;12.00;9.05;;;;;;;15.58;60.85;101842.75;5074785;28;20032;-70
2022/06/04 06:58:17;;;;;;;10.20;8.55;;;;;;;15.52;61.46;101845.84;5072093;28;20122;-70
2022/06/04 07:00:42;;;;;;;10.18;8.02;;;;;;;15.67;60.98;101836.75;5072997;28;20135;-70
2022/06/04 07:03:08;;;;;;;10.00;8.48;;;;;;;15.57;61.43;101835.66;5073794;28;20066;-70
2022/06/04 07:05:34;;;;;;;12.35;9.18;;;;;;;15.66;61.75;101838.56;5074079;28;20032;-70
2022/06/04 07:08:00;;;;;;;15.43;8.80;;;;;;;15.63;61.04;101837.94;5074204;28;20024;-70
2022/06/04 07:10:25;;;;;;;12.05;9.05;;;;;;;15.62;61.11;101842.44;5070707;28;20028;-70
2022/06/04 07:12:51;;;;;;;12.10;8.93;;;;;;;15.59;61.74;101837.28;5056301;28;20430;-70
2022/06/04 07:15:16;;;;;;;11.77;9.48;;;;;;;15.51;60.97;101841.44;5057619;28;20114;-70
2022/06/04 07:17:42;;;;;;;9.93;8.73;;;;;;;15.55;61.86;101834.91;5073880;28;20064;-70
2022/06/04 07:20:08;;;;;;;15.93;9.27;;;;;;;15.58;61.74;101857.00;5073586;28;20032;-70
2022/06/04 07:22:33;;;;;;;12.98;9.25;;;;;;;15.66;61.28;101849.28;5056052;28;20131;-70
2022/06/04 07:25:00;;;;;;;13.00;9.68;;;;;;;15.61;60.95;101847.88;5056925;28;20123;-70
2022/06/04 07:27:29;;;;;;;11.25;8.98;;;;;;;15.63;61.47;101846.81;5056660;28;20479;-70
2022/06/04 07:29:55;;;;;;;18.63;9.68;;;;;;;15.66;60.76;101849.28;5090888;28;20138;-70
2022/06/04 07:32:21;;;;;;;12.23;9.30;;;;;;;15.62;61.19;101850.47;5088203;28;20023;-70
2022/06/04 07:34:47;;;;;;;12.07;9.13;;;;;;;15.62;61.71;101839.75;5092634;28;20038;-70
2022/06/04 07:37:13;;;;;;;13.70;9.63;;;;;;;15.67;61.48;101850.16;5075143;28;20119;-70
2022/06/04 07:39:39;;;;;;;15.55;10.05;;;;;;;15.64;61.84;101861.09;5073409;28;20135;-70
2022/06/04 07:42:08;;;;;;;14.57;9.63;;;;;;;15.63;60.93;101870.97;5072858;28;20035;-69
2022/06/04 07:44:37;;;;;;;16.45;10.32;;;;;;;15.64;61.55;101879.84;5089237;28;20447;-71
2022/06/04 07:47:03;;;;;;;16.13;9.65;;;;;;;15.74;61.19;101877.47;5091625;28;20023;-70
2022/06/04 07:49:29;;;;;;;20.70;9.43;;;;;;;15.76;60.83;101876.38;5056971;28;20064;-70
2022/06/04 07:51:55;;;;;;;14.63;10.07;;;;;;;15.79;61.10;101865.44;5070398;28;20066;-70
2022/06/04 07:54:20;;;;;;;15.50;10.27;;;;;;;15.78;61.06;101861.03;5055744;28;20502;-70
2022/06/04 07:56:46;;;;;;;13.48;9.95;;;;;;;15.85;61.15;101854.31;5071835;28;20096;-70
2022/06/04 07:59:15;;;;;;;12.00;10.27;;;;;;;15.84;60.96;101857.94;5054582;28;20044;-70
2022/06/04 08:01:41;;;;;;;10.85;8.90;;;;;;;15.87;61.20;101855.03;5069661;28;20036;-70
2022/06/04 08:04:07;;;;;;;13.63;9.48;;;;;;;15.92;60.58;101862.78;5071287;28;20025;-70
2022/06/04 08:06:33;;;;;;;15.23;10.68;;;;;;;15.95;61.04;101856.34;5052853;28;20115;-70
2022/06/04 08:09:01;;;;;;;16.77;10.25;;;;;;;15.82;61.53;101862.53;5071480;28;20059;-70
2022/06/04 08:11:31;;;;;;;13.57;9.82;;;;;;;15.78;61.70;101868.22;5070534;28;20479;-70
2022/06/04 08:14:05;;;;;;;13.00;10.50;;;;;;;15.85;60.92;101854.31;5070498;28;20106;-70
2022/06/04 08:16:31;;;;;;;13.00;9.40;;;;;;;15.94;60.78;101860.81;5070846;28;20063;-70
2022/06/04 08:18:57;;;;;;;12.00;9.75;;;;;;;15.92;60.64;101854.72;5071464;28;20020;-70
2022/06/04 08:21:22;;;;;;;15.20;9.85;;;;;;;15.94;61.19;101862.66;5069542;28;20036;-70
2022/06/04 08:23:48;;;;;;;13.32;10.05;;;;;;;15.92;60.88;101859.25;5069408;28;20028;-70
2022/06/04 08:26:14;;;;;;;10.63;9.13;;;;;;;15.96;61.34;101844.63;5069149;28;20502;-70
2022/06/04 08:28:40;;;;;;;14.13;10.52;;;;;;;16.08;61.24;101844.63;5070283;28;20029;-70
2022/06/04 08:31:09;;;;;;;12.57;9.35;;;;;;;16.12;61.27;101838.09;5069472;28;20035;-70
2022/06/04 08:33:36;;;;;;;12.23;9.70;;;;;;;16.12;60.14;101834.56;5072284;28;20527;-70
2022/06/04 08:36:03;;;;;;;11.32;10.10;;;;;;;16.16;60.37;101832.50;5069477;28;20040;-70
2022/06/04 08:38:32;;;;;;;15.23;10.15;;;;;;;16.01;60.00;101835.28;5070821;28;20036;-70
2022/06/04 08:41:01;;;;;;;16.00;10.75;;;;;;;16.10;61.06;101848.06;5069040;28;20091;-70
2022/06/04 08:43:51;;;;;;;12.40;10.45;;;;;;;16.23;60.44;101845.34;5070314;28;20031;-70
2022/06/04 08:46:20;;;;;;;;;;;;;;;16.45;59.63;101852.75;5071031;28;20032;-70
2022/06/04 08:48:47;;;;;;;15.40;10.23;;;;;;;16.47;59.99;101847.25;5070561;28;19919;-71
2022/06/04 08:51:25;;;;;;;13.00;10.80;;;;;;;16.58;59.69;101850.88;5069593;28;20324;-71
2022/06/04 08:53:58;;;;;;;14.30;10.35;;;;;;;16.67;60.36;101846.69;5070489;28;20032;-70
2022/06/04 09:00:03;;;;;;;18.67;10.60;;;;;;;17.02;59.42;101862.94;5068540;28;20044;-70
2022/06/04 09:02:58;;;;;;;13.75;10.50;;;;;;;17.17;59.69;101862.75;5067276;28;20052;-70
2022/06/04 09:05:26;;;;;;;13.85;10.45;;;;;;;17.36;58.50;101863.09;5069262;28;20032;-70
2022/06/04 09:08:01;;;;;;;16.05;10.05;;;;;;;17.71;57.66;101867.63;5068847;28;20063;-70
2022/06/04 09:10:46;;;;;;;12.43;9.70;;;;;;;18.16;56.77;101859.66;5071831;28;20023;-70
2022/06/04 09:13:26;;;;;;;11.82;9.70;;;;;;;18.44;55.12;101857.47;5068888;28;20361;-70
2022/06/04 09:15:56;;;;;;;10.57;9.40;;;;;;;18.74;54.08;101859.56;5090230;28;20031;-70
2022/06/04 09:18:35;;;;;;;16.10;11.00;;;;;;;18.83;54.70;101851.56;5070037;28;20024;-70
2022/06/04 09:21:02;;;;;;;;;;;;;;;18.98;53.02;101862.09;5071038;28;20078;-70
2022/06/04 09:23:34;;;;;;;16.17;9.93;;;;;;;18.65;53.77;101863.81;5070707;28;20268;-70
2022/06/04 09:26:14;;;;;;;12.27;10.10;;;;;;;18.65;54.05;101861.13;5072017;28;20064;-70
2022/06/04 09:28:54;;;;;;;17.10;9.98;;;;;;;18.65;53.98;101869.22;5073481;28;20039;-70
2022/06/04 09:31:29;;;;;;;13.90;9.77;;;;;;;18.76;53.80;101866.50;5075312;28;20360;-70
2022/06/04 09:33:58;;;;;;;13.45;9.82;;;;;;;18.93;53.29;101867.00;5075879;28;20024;-70
2022/06/04 09:36:31;;;;;;;10.98;9.77;;;;;;;19.31;53.65;101861.09;5073625;28;20036;-70
2022/06/04 09:39:04;;;;;;;14.90;9.25;;;;;;;19.60;52.61;101864.03;5073620;28;20031;-70
2022/06/04 09:41:32;;;;;;;12.52;9.55;;;;;;;19.80;51.97;101859.66;5073224;28;20040;-72
2022/06/04 09:44:14;;;;;;;13.10;10.13;;;;;;;19.93;51.92;101863.00;5073861;28;20395;-70
2022/06/04 09:46:43;;;;;;;14.65;9.80;;;;;;;19.88;50.46;101870.69;5073753;28;20043;-70
2022/06/04 09:49:18;;;;;;;11.27;9.65;;;;;;;19.86;51.50;101867.25;5072845;28;20023;-70
2022/06/04 09:51:44;;;;;;;13.70;9.40;;;;;;;19.83;51.14;101875.59;5073179;28;20388;-70
2022/06/04 09:54:22;;;;;;;14.73;10.07;;;;;;;19.88;51.26;101869.78;5071895;28;20035;-70
2022/06/04 09:56:53;;;;;;;13.90;10.60;;;;;;;19.83;51.08;101874.75;5071580;28;20028;-70
2022/06/04 09:59:28;;;;;;;16.63;11.07;;;;;;;19.64;52.10;101870.88;5072286;28;20055;-70
2022/06/04 10:01:57;;;;;;;13.05;10.57;;;;;;;19.60;51.70;101877.53;5092435;28;20075;-70
2022/06/04 10:04:23;;;;;;;13.02;9.85;;;;;;;19.68;51.18;101879.63;5093638;28;20044;-70
2022/06/04 10:06:50;;;;;;;14.50;10.27;;;;;;;19.66;51.87;101870.78;5093494;28;20039;-70
2022/06/04 10:12:07;;;;;;;14.73;9.80;;;;;;;20.01;51.64;101883.97;5093221;28;20093;-71
2022/06/04 10:14:38;;;;;;;16.25;10.57;;;;;;;19.96;51.82;101888.91;5093508;28;20118;-70
2022/06/04 10:17:16;;;;;;;11.50;10.30;;;;;;;20.08;50.88;101884.28;5093090;28;20034;-70
2022/06/04 10:19:53;;;;;;;13.85;11.10;;;;;;;20.11;51.25;101882.16;5101389;28;20027;-70
2022/06/04 10:22:19;;;;;;;11.52;10.25;;;;;;;20.13;50.47;101876.63;5074836;28;20035;-70
2022/06/04 10:24:53;;;;;;;14.65;10.65;;;;;;;20.04;50.95;101880.16;5076604;28;20035;-70
2022/06/04 10:27:22;;;;;;;14.68;10.55;;;;;;;20.18;51.23;101887.91;5092560;28;20051;-70
2022/06/04 10:30:06;;;;;;;14.70;11.10;;;;;;;20.19;50.06;101876.09;5093082;28;20016;-70
2022/06/04 10:33:08;;;;;;;13.13;11.18;;;;;;;20.27;50.65;101880.84;5074908;28;20070;-71
2022/06/04 10:35:39;;;;;;;16.48;10.45;;;;;;;20.62;51.16;101886.72;5094014;28;20032;-71
2022/06/04 10:38:26;;;;;;;13.82;11.35;;;;;;;20.83;50.71;101883.06;5073992;28;20047;-71
2022/06/04 10:40:55;;;;;;;12.95;10.18;;;;;;;21.00;49.68;101876.13;5074868;28;20032;-71
2022/06/04 10:43:24;;;;;;;;;;;;;;;21.20;49.46;101885.13;5092970;28;20434;-71
2022/06/04 10:46:00;;;;;;;15.15;10.45;;;;;;;21.32;50.00;101878.56;5092501;28;19947;-70
2022/06/04 10:48:48;;;;;;;12.52;10.45;;;;;;;21.65;49.39;101876.47;5092636;28;20383;-70
2022/06/04 10:51:31;;;;;;;15.23;10.82;;;;;;;21.82;47.52;101889.28;5092469;28;20035;-70
2022/06/04 10:54:12;;;;;;;15.45;10.95;;;;;;;22.10;47.06;101884.81;5092812;28;20102;-70
2022/06/04 10:56:44;;;;;;;12.75;10.77;;;;;;;22.28;45.86;101884.94;5091806;28;20143;-70
2022/06/04 10:59:29;;;;;;;15.43;10.82;;;;;;;22.50;47.09;101875.59;5092542;28;20028;-70
2022/06/04 11:02:03;;;;;;;12.25;10.75;;;;;;;22.88;46.11;101889.91;5074061;28;20505;-71
2022/06/04 11:04:54;;;;;;;12.30;10.95;;;;;;;22.85;45.60;101880.25;5092693;28;20024;-70
2022/06/04 11:07:54;;;;;;;15.00;10.77;;;;;;;23.08;45.13;101886.09;5092010;28;20113;-71
2022/06/04 11:10:44;;;;;;;13.27;10.27;;;;;;;23.12;45.20;101884.81;5092466;28;20040;-70
2022/06/04 11:13:19;;;;;;;14.32;9.63;;;;;;;23.13;44.48;101889.22;5092688;28;20390;-71
2022/06/04 11:15:59;;;;;;;13.80;10.50;;;;;;;23.06;44.81;101885.44;5092220;28;20028;-71
2022/06/04 11:18:33;;;;;;;13.52;10.68;;;;;;;23.17;44.42;101891.63;5092239;28;20024;-70
2022/06/04 11:21:24;;;;;;;12.07;10.30;;;;;;;23.43;44.85;101899.88;5091948;28;20493;-70
2022/06/04 11:24:03;;;;;;;13.45;10.70;;;;;;;23.48;43.15;101886.69;5074059;28;20034;-70
2022/06/04 11:26:40;;;;;;;11.60;10.38;;;;;;;23.69;43.67;101894.50;5091832;28;20016;-70
2022/06/04 11:29:09;;;;;;;15.23;11.23;;;;;;;23.75;43.61;101896.63;5091888;28;20035;-70
2022/06/04 11:32:05;;;;;;;11.40;10.23;;;;;;;24.13;42.81;101895.38;5091902;28;20047;-70
2022/06/04 11:34:43;;;;;;;11.82;10.15;;;;;;;24.34;41.84;101894.13;5092831;28;20032;-71
2022/06/04 11:37:30;;;;;;;14.95;10.77;;;;;;;24.32;42.75;101879.84;5092058;28;20059;-70
2022/06/04 11:40:20;;;;;;;12.07;10.50;;;;;;;24.37;42.67;101867.44;5092094;28;20474;-71
2022/06/04 11:43:13;;;;;;;11.40;9.73;;;;;;;24.39;42.06;101865.44;5091169;28;20106;-70
2022/06/04 11:45:45;;;;;;;12.85;9.73;;;;;;;24.40;41.27;101860.84;5091903;28;20019;-70
2022/06/04 11:48:22;;;;;;;14.45;10.13;;;;;;;24.29;41.96;101870.13;5091306;28;20020;-71
2022/06/04 11:51:12;;;;;;;11.40;10.20;;;;;;;24.25;42.53;101855.16;5091422;28;20099;-71
2022/06/04 11:53:58;;;;;;;12.88;10.93;;;;;;;24.45;41.68;101869.41;5091635;28;20378;-71